Blackburn, MO (65321)

5:33 AM CST on February 28, 2017 (GMT -0600)
Hwy 20 and 127 South | | Change Station

Elev 830 ft 39.10 °N, 93.42 °W | Updated 11 seconds ago

Overcast
Overcast
60.3 °F
Feels Like 60.3 °F
N
17.7
Wind Variable Wind from SSW
Gusts 21.3 mph

Today
High -- | Low -- °F
--% Chance of Precip.
Yesterday
High -- | Low -- °F
Precip. -- in
Pressure 29.74 in
Visibility 10.0 miles
Clouds Mostly Cloudy 1800 ft
Dew Point 60 °F
Humidity 98%
Rainfall 0.00 in
Snow Depth Not available.
6:47 AM 6:05 PM
Waxing Crescent, 4% visible
METAR KSZL 281058Z 21013KT 10SM BKN018 16/16 A2974 RMK AO2A SLP070 T01570157 $
Pressure 29.74 in
Visibility 10.0 miles
Clouds Mostly Cloudy 1800 ft
Dew Point 60 °F
Humidity 98%
Rainfall 0.00 in
Snow Depth Not available.
6:47 AM 6:05 PM
Waxing Crescent, 4% visible
METAR KSZL 281058Z 21013KT 10SM BKN018 16/16 A2974 RMK AO2A SLP070 T01570157 $

Get Your Daily Forecast Email!

Thanks for signing up!

Be on the lookout for a verification email in your inbox.

You'll start receiving the daily forecast at 8 AM.

×

10-Day Weather Forecast

Almanac

Astronomy

Feb. 28, 2017 Rise Set
Actual Time
Civil Twilight
Nautical Twilight
Astronomical Twilight
Moon
Length of Visible Light
Length of Day
Tomorrow will be .
, % of the Moon is Illuminated

Today's Extremes

State Highs State Lows

Community

WunderPhotos

Upload Photos

1,962,540 photos uploaded!

WunderBlog® & News

Nearby

Air Quality

  Air Quality AQ Index Pollutant
Not available.

Snow Depth

Station Depth Elevation

Earthquake Activity

City Distance Mag. Time & Date
Minimum magnitude displayed is 2.5.

Coastal Water Temperatures

Place Temperature

Stations

Nearby Weather Stations

Station Location Temp. Windchill Dew Point Humidity Wind Precip. Elev Updated Type
                   

Watches & Warnings

There are currently no watches in effect.